Time;durP1;ratioP1;P1;durP2;ratioP2;P2;SDS_P1;SDS_P2;PMS_P1;PMS_P2;Temp;Humidity;BMP_temperature;BMP_pressure;BME280_temperature;BME280_humidity;BME280_pressure;Samples;Min_cycle;Max_cycle;Signal;HPM_P1;HPM_P2
2021/04/13 00:02:27;;;;;;;22.77;14.38;;;0.70;93.10;;;;;;4997754;28;20061;-76
2021/04/13 00:04:56;;;;;;;24.20;14.32;;;0.60;93.30;;;;;;5005512;28;20042;-76
2021/04/13 00:07:22;;;;;;;22.65;13.32;;;0.70;93.20;;;;;;4974597;28;20045;-76
2021/04/13 00:09:48;;;;;;;18.92;12.35;;;0.50;93.20;;;;;;4981035;28;20072;-76
2021/04/13 00:12:16;;;;;;;22.65;13.73;;;0.50;93.30;;;;;;4974288;28;20084;-76
2021/04/13 00:14:45;;;;;;;21.55;13.85;;;0.50;93.30;;;;;;4994586;28;20034;-77
2021/04/13 00:17:16;;;;;;;22.17;13.18;;;0.50;93.20;;;;;;4997283;28;20087;-76
2021/04/13 00:19:44;;;;;;;27.40;14.90;;;0.60;93.40;;;;;;4979665;28;20077;-76
2021/04/13 00:22:10;;;;;;;23.30;15.25;;;0.50;93.10;;;;;;5004750;28;20042;-76
2021/04/13 00:24:35;;;;;;;24.15;15.35;;;0.50;93.20;;;;;;4980447;28;20451;-76
2021/04/13 00:27:01;;;;;;;21.10;12.50;;;0.50;93.20;;;;;;4985806;28;20035;-76
2021/04/13 00:29:28;;;;;;;24.73;14.70;;;0.50;93.50;;;;;;4989009;28;20068;-77
2021/04/13 00:31:55;;;;;;;24.38;12.82;;;0.50;93.10;;;;;;4997131;28;20490;-76
2021/04/13 00:34:30;;;;;;;25.27;14.98;;;0.50;93.60;;;;;;4999671;28;20449;-76
2021/04/13 00:37:25;;;;;;;25.90;14.93;;;0.50;93.00;;;;;;4985278;28;20065;-75
2021/04/13 00:39:52;;;;;;;22.60;14.10;;;0.40;93.10;;;;;;4998155;28;20634;-76
2021/04/13 00:42:29;;;;;;;23.83;14.32;;;0.30;93.40;;;;;;4988423;28;20033;-75
2021/04/13 00:44:58;;;;;;;22.08;13.48;;;0.30;93.20;;;;;;4978404;28;20039;-75
2021/04/13 00:47:32;;;;;;;22.50;12.80;;;0.20;93.40;;;;;;4969724;28;20080;-76
2021/04/13 00:50:00;;;;;;;25.50;15.50;;;0.40;93.70;;;;;;4964349;28;20076;-76
2021/04/13 00:52:34;;;;;;;24.35;15.52;;;0.30;93.30;;;;;;4984784;28;20061;-76
2021/04/13 00:55:00;;;;;;;22.45;11.95;;;0.30;93.40;;;;;;4980211;28;20038;-75
2021/04/13 00:57:29;;;;;;;23.92;14.48;;;0.30;93.50;;;;;;4967831;28;20091;-76
2021/04/13 00:59:54;;;;;;;20.58;12.38;;;0.40;93.20;;;;;;4978249;28;20057;-76
2021/04/13 01:02:27;;;;;;;20.80;13.57;;;0.50;93.30;;;;;;5004792;28;20050;-76
2021/04/13 01:04:57;;;;;;;20.30;12.57;;;0.40;93.10;;;;;;4996316;28;20060;-76
2021/04/13 01:07:36;;;;;;;20.23;12.90;;;0.40;93.30;;;;;;5004817;28;20120;-75
2021/04/13 01:10:08;;;;;;;26.13;15.05;;;0.30;93.10;;;;;;4996073;28;20037;-76
2021/04/13 01:12:37;;;;;;;27.50;13.90;;;0.30;93.30;;;;;;4986563;28;20413;-76
2021/04/13 01:15:05;;;;;;;22.90;14.75;;;0.20;93.20;;;;;;4968667;28;20167;-76
2021/04/13 01:17:30;;;;;;;25.77;15.60;;;0.10;93.40;;;;;;4986390;28;20048;-76
2021/04/13 01:20:17;;;;;;;32.40;17.17;;;0.00;93.60;;;;;;4989310;28;20128;-76
2021/04/13 01:25:21;;;;;;;;;;;-0.20;93.80;;;;;;4984293;28;20034;-76
2021/04/13 01:27:49;;;;;;;23.55;14.50;;;-0.30;93.90;;;;;;5017247;28;20235;-76
2021/04/13 01:30:15;;;;;;;19.92;11.75;;;-0.20;93.80;;;;;;4971602;28;20042;-76
2021/04/13 01:32:40;;;;;;;25.27;14.52;;;-0.10;94.10;;;;;;4978685;28;20031;-76
2021/04/13 01:35:09;;;;;;;23.80;14.38;;;0.00;93.70;;;;;;4987248;28;20034;-76
2021/04/13 01:38:01;;;;;;;25.85;13.70;;;0.00;93.60;;;;;;4995257;28;20030;-76
2021/04/13 01:40:50;;;;;;;23.55;13.63;;;-0.20;93.80;;;;;;4981739;28;20116;-76
2021/04/13 01:43:16;;;;;;;23.50;14.70;;;-0.30;93.70;;;;;;4989687;28;20073;-76
2021/04/13 01:45:41;;;;;;;26.55;14.30;;;-0.40;93.90;;;;;;4994217;28;20034;-76
2021/04/13 01:48:07;;;;;;;29.40;15.23;;;-0.30;94.00;;;;;;4979983;28;20034;-76
2021/04/13 01:50:41;;;;;;;30.60;16.08;;;-0.30;94.00;;;;;;4979391;28;20402;-76
2021/04/13 01:53:13;;;;;;;31.15;16.48;;;-0.40;93.90;;;;;;4982044;28;20044;-75
2021/04/13 01:55:55;;;;;;;28.58;14.68;;;-0.50;94.20;;;;;;4974305;28;20087;-76
2021/04/13 01:58:26;;;;;;;33.17;15.95;;;-0.40;94.00;;;;;;4991185;28;20035;-76
2021/04/13 02:01:07;;;;;;;24.95;14.15;;;-0.40;94.20;;;;;;4994895;28;20045;-77
2021/04/13 02:04:02;;;;;;;24.27;14.70;;;-0.30;94.40;;;;;;4983137;28;20033;-76
2021/04/13 02:06:49;;;;;;;23.50;14.43;;;-0.30;94.00;;;;;;4992499;28;20128;-77
2021/04/13 02:11:56;;;;;;;29.80;16.80;;;-0.50;94.00;;;;;;4979370;28;20373;-76
2021/04/13 02:14:22;;;;;;;25.40;13.18;;;-0.50;94.00;;;;;;4974252;28;20045;-76
2021/04/13 02:16:53;;;;;;;24.23;15.43;;;-0.50;94.20;;;;;;4995063;28;20076;-77
2021/04/13 02:19:18;;;;;;;21.42;12.38;;;-0.50;94.00;;;;;;4970626;28;20039;-76
2021/04/13 02:21:49;;;;;;;22.92;13.07;;;-0.40;94.10;;;;;;4964531;28;20100;-77
2021/04/13 02:24:19;;;;;;;25.20;14.00;;;-0.40;94.00;;;;;;4981662;28;20022;-77
2021/04/13 02:26:52;;;;;;;25.35;14.48;;;-0.40;94.00;;;;;;4998673;28;20806;-76
2021/04/13 02:29:18;;;;;;;28.88;15.25;;;-0.40;94.00;;;;;;4998826;28;20455;-76
2021/04/13 02:31:52;;;;;;;28.52;16.73;;;-0.50;93.90;;;;;;4981845;28;20041;-76
2021/04/13 02:34:23;;;;;;;22.38;12.30;;;-0.50;93.90;;;;;;4984566;28;20069;-76
2021/04/13 02:37:01;;;;;;;32.40;17.60;;;-0.40;94.20;;;;;;4998355;28;20033;-77
2021/04/13 02:39:28;;;;;;;27.85;15.35;;;-0.60;93.80;;;;;;5002147;28;20042;-76
2021/04/13 02:42:13;;;;;;;24.25;14.18;;;-0.70;94.00;;;;;;4989879;28;20040;-77
2021/04/13 02:44:38;;;;;;;29.13;16.27;;;-0.70;94.20;;;;;;4985775;28;20378;-77
2021/04/13 02:47:07;;;;;;;26.33;14.30;;;-0.70;94.10;;;;;;5000090;28;20040;-77
2021/04/13 02:49:32;;;;;;;31.15;17.60;;;-0.70;94.30;;;;;;4976477;28;20037;-76
2021/04/13 02:51:58;;;;;;;31.95;17.25;;;-0.80;94.00;;;;;;4972102;28;20523;-77
2021/04/13 02:54:29;;;;;;;31.38;17.95;;;-0.90;94.20;;;;;;5007006;28;20125;-77
2021/04/13 02:56:58;;;;;;;26.30;15.05;;;-0.90;94.50;;;;;;4998054;28;20030;-77
2021/04/13 02:59:25;;;;;;;29.73;15.77;;;-0.90;94.70;;;;;;4982304;28;20038;-77
2021/04/13 03:02:14;;;;;;;31.15;17.42;;;-0.80;94.40;;;;;;4996495;28;20409;-76
2021/04/13 03:04:53;;;;;;;33.38;17.75;;;-0.90;94.20;;;;;;4999775;28;20045;-77
2021/04/13 03:07:23;;;;;;;28.20;16.35;;;-1.00;94.40;;;;;;4999865;28;20221;-76
2021/04/13 03:09:50;;;;;;;28.92;17.02;;;-1.00;94.70;;;;;;4982976;28;20620;-76
2021/04/13 03:12:15;;;;;;;29.77;16.00;;;-0.90;94.90;;;;;;4996893;28;20039;-77
2021/04/13 03:14:54;;;;;;;33.17;17.55;;;-0.90;94.70;;;;;;4997147;28;20042;-76
2021/04/13 03:17:21;;;;;;;30.13;17.27;;;-1.00;94.40;;;;;;4983388;28;20031;-77
2021/04/13 03:19:48;;;;;;;25.95;14.43;;;-0.90;94.70;;;;;;4980838;28;20049;-77
2021/04/13 03:22:14;;;;;;;27.60;15.63;;;-0.80;95.00;;;;;;4974906;28;20064;-77
2021/04/13 03:24:42;;;;;;;27.80;16.30;;;-0.90;94.60;;;;;;4970309;28;20565;-76
2021/04/13 03:27:12;;;;;;;25.48;15.10;;;-0.90;94.70;;;;;;4987574;28;20066;-76
2021/04/13 03:29:56;;;;;;;33.70;17.10;;;-0.90;94.80;;;;;;4990971;28;20038;-76
2021/04/13 03:32:23;;;;;;;30.00;16.15;;;-0.90;94.90;;;;;;4987118;28;20058;-77
2021/04/13 03:34:48;;;;;;;25.67;16.27;;;-1.00;94.80;;;;;;4987917;28;20088;-77
2021/04/13 03:37:14;;;;;;;29.75;17.63;;;-0.90;94.90;;;;;;4983870;28;20037;-77
2021/04/13 03:39:42;;;;;;;31.67;16.48;;;-0.80;94.70;;;;;;4977943;28;20038;-77
2021/04/13 03:42:14;;;;;;;28.95;16.50;;;-0.80;94.70;;;;;;4981539;28;20291;-76
2021/04/13 03:44:40;;;;;;;27.58;15.15;;;-0.90;94.60;;;;;;4996791;28;20027;-77
2021/04/13 03:47:13;;;;;;;28.02;15.65;;;-1.00;94.90;;;;;;4973221;28;20409;-77
2021/04/13 03:49:40;;;;;;;32.25;17.77;;;-0.80;95.00;;;;;;4973465;28;20517;-77
2021/04/13 03:52:23;;;;;;;31.27;16.88;;;-0.90;94.70;;;;;;4985658;28;20034;-76
2021/04/13 03:54:48;;;;;;;27.58;16.02;;;-1.10;94.90;;;;;;4964789;28;20045;-77
2021/04/13 03:57:29;;;;;;;29.50;16.60;;;-0.90;94.70;;;;;;4980136;28;20434;-76
2021/04/13 03:59:55;;;;;;;35.13;15.88;;;-1.00;95.00;;;;;;4996646;28;20109;-77
2021/04/13 04:02:20;;;;;;;27.63;15.10;;;-0.90;94.70;;;;;;4983843;28;20030;-77
2021/04/13 04:04:46;;;;;;;26.58;15.18;;;-0.90;94.80;;;;;;5000161;28;20038;-77
2021/04/13 04:07:33;;;;;;;30.02;16.85;;;-1.00;94.90;;;;;;4998032;28;20673;-77
2021/04/13 04:09:59;;;;;;;30.38;15.27;;;-0.90;95.00;;;;;;4971401;28;20485;-77
2021/04/13 04:12:26;;;;;;;21.90;13.25;;;-1.00;95.10;;;;;;4986765;28;20048;-77
2021/04/13 04:15:13;;;;;;;31.50;18.15;;;-0.90;95.00;;;;;;4968590;28;20563;-77
2021/04/13 04:17:46;;;;;;;34.38;16.67;;;-0.90;94.80;;;;;;5002968;28;20030;-77
2021/04/13 04:20:12;;;;;;;27.45;14.20;;;-0.90;95.00;;;;;;4980124;28;20426;-77
2021/04/13 04:22:52;;;;;;;28.58;16.08;;;-0.80;95.20;;;;;;4980273;28;20578;-77
2021/04/13 04:25:30;;;;;;;29.70;16.60;;;-0.80;94.70;;;;;;4993493;28;20023;-76
2021/04/13 04:27:57;;;;;;;29.73;16.80;;;-0.70;94.80;;;;;;4998933;28;20029;-77
2021/04/13 04:30:27;;;;;;;22.63;14.07;;;-0.70;94.90;;;;;;4988885;28;20038;-77
2021/04/13 04:32:54;;;;;;;19.15;12.43;;;-0.60;94.90;;;;;;4993689;28;20457;-77
2021/04/13 04:35:42;;;;;;;31.27;16.10;;;-0.50;94.60;;;;;;4980812;28;20034;-77
2021/04/13 04:38:27;;;;;;;28.88;16.27;;;-0.60;94.40;;;;;;5014256;28;20122;-76
2021/04/13 04:40:57;;;;;;;26.52;16.08;;;-0.80;94.50;;;;;;4993316;28;20037;-77
2021/04/13 04:43:44;;;;;;;28.95;15.45;;;-0.80;94.90;;;;;;5004412;28;20490;-76
2021/04/13 04:46:10;;;;;;;26.88;13.98;;;-0.80;94.80;;;;;;4997054;28;20036;-76
2021/04/13 04:48:36;;;;;;;27.67;16.27;;;-0.50;94.70;;;;;;4968454;28;20038;-77
2021/04/13 04:51:07;;;;;;;23.38;13.07;;;-0.70;94.70;;;;;;4977687;28;20490;-76
2021/04/13 04:53:33;;;;;;;29.00;14.80;;;-0.50;94.60;;;;;;5006107;28;20131;-76
2021/04/13 04:56:01;;;;;;;24.98;14.07;;;-0.70;94.60;;;;;;4980997;28;20398;-76
2021/04/13 04:58:26;;;;;;;32.92;16.40;;;-0.80;94.90;;;;;;4980297;28;20113;-77
2021/04/13 05:00:52;;;;;;;31.27;16.52;;;-0.70;94.90;;;;;;4987845;28;20513;-76
2021/04/13 05:03:18;;;;;;;28.92;15.40;;;-0.60;94.80;;;;;;4988297;28;20056;-77
2021/04/13 05:05:44;;;;;;;29.50;16.02;;;-0.70;94.80;;;;;;4994734;28;20062;-77
2021/04/13 05:08:09;;;;;;;27.55;16.83;;;-0.60;95.30;;;;;;4978374;28;20053;-76
2021/04/13 05:10:35;;;;;;;31.85;19.05;;;-0.60;95.00;;;;;;4982138;28;20038;-76
2021/04/13 05:13:01;;;;;;;37.78;20.15;;;-0.70;95.10;;;;;;4974251;28;20165;-77
2021/04/13 05:15:26;;;;;;;30.27;16.92;;;-0.60;95.30;;;;;;4993530;28;20037;-77
2021/04/13 05:17:52;;;;;;;28.40;14.60;;;-0.40;94.90;;;;;;4986971;28;20046;-77
2021/04/13 05:20:18;;;;;;;28.05;17.13;;;-0.40;95.00;;;;;;4979192;28;20379;-77
2021/04/13 05:22:43;;;;;;;30.20;18.02;;;-0.30;94.90;;;;;;4974215;28;20104;-77
2021/04/13 05:25:09;;;;;;;24.90;15.80;;;-0.30;95.00;;;;;;4967106;28;20085;-77
2021/04/13 05:27:35;;;;;;;23.73;15.38;;;-0.20;94.90;;;;;;4995624;28;20539;-77
2021/04/13 05:30:01;;;;;;;29.42;16.80;;;0.00;94.80;;;;;;4980378;28;20042;-77
2021/04/13 05:32:26;;;;;;;28.42;17.50;;;0.00;94.70;;;;;;4995729;28;20029;-77
2021/04/13 05:34:52;;;;;;;32.65;19.65;;;-0.10;95.30;;;;;;4978117;28;20038;-76
2021/04/13 05:37:18;;;;;;;31.15;16.73;;;0.00;95.10;;;;;;4984940;28;20129;-77
2021/04/13 05:39:43;;;;;;;39.75;22.48;;;0.10;94.90;;;;;;4992614;28;20442;-77
2021/04/13 05:42:18;;;;;;;29.77;18.75;;;0.20;95.20;;;;;;4977848;28;20064;-77
2021/04/13 05:44:43;;;;;;;35.28;20.45;;;0.20;94.90;;;;;;4977436;28;20401;-77
2021/04/13 05:47:09;;;;;;;29.25;16.38;;;0.30;95.10;;;;;;4969058;28;20061;-77
2021/04/13 05:49:34;;;;;;;28.63;17.48;;;0.30;95.30;;;;;;5000505;28;20029;-76
2021/04/13 05:52:00;;;;;;;38.17;20.67;;;0.40;94.80;;;;;;4976884;28;20034;-76
2021/04/13 05:54:25;;;;;;;32.85;19.50;;;0.50;95.20;;;;;;4997975;28;20034;-77
2021/04/13 05:56:51;;;;;;;27.92;17.23;;;0.50;95.00;;;;;;5001650;28;20378;-76
2021/04/13 05:59:16;;;;;;;42.17;21.52;;;0.60;94.70;;;;;;4990327;28;20041;-76
2021/04/13 06:01:48;;;;;;;35.88;23.42;;;0.60;95.40;;;;;;4962376;28;20042;-76
2021/04/13 06:04:13;;;;;;;37.28;21.45;;;0.60;95.30;;;;;;4979973;28;20038;-79
2021/04/13 06:06:39;;;;;;;46.92;25.60;;;0.60;95.00;;;;;;4980754;28;20091;-76
2021/04/13 06:09:05;;;;;;;41.53;22.65;;;0.70;95.70;;;;;;4985158;28;20062;-79
2021/04/13 06:11:31;;;;;;;36.70;22.10;;;0.80;95.10;;;;;;4954134;28;20463;-78
2021/04/13 06:13:57;;;;;;;44.45;25.60;;;0.80;95.30;;;;;;5003162;28;20041;-78
2021/04/13 06:16:25;;;;;;;35.85;19.58;;;0.90;95.30;;;;;;4978383;28;20030;-79
2021/04/13 06:18:50;;;;;;;33.85;20.73;;;1.00;94.90;;;;;;4983367;28;20041;-78
2021/04/13 06:21:16;;;;;;;36.97;20.52;;;1.10;95.00;;;;;;4987220;28;20050;-78
2021/04/13 06:23:41;;;;;;;26.77;16.92;;;1.10;94.70;;;;;;4988658;28;20484;-79
2021/04/13 06:26:07;;;;;;;33.97;20.75;;;1.20;94.30;;;;;;4979903;28;20026;-79
2021/04/13 06:28:33;;;;;;;28.48;15.60;;;1.30;95.00;;;;;;4990668;28;20029;-79
2021/04/13 06:30:58;;;;;;;29.50;16.33;;;1.40;94.30;;;;;;4986984;28;20034;-79
2021/04/13 06:33:27;;;;;;;31.58;16.50;;;1.50;95.20;;;;;;4996942;28;20112;-78
2021/04/13 06:35:56;;;;;;;26.95;13.40;;;1.60;94.40;;;;;;4980785;28;20092;-78
2021/04/13 06:38:22;;;;;;;23.35;13.88;;;1.80;94.30;;;;;;4997709;28;20514;-78
2021/04/13 06:41:19;;;;;;;36.13;16.42;;;1.80;94.70;;;;;;4978901;28;20041;-78
2021/04/13 06:43:51;;;;;;;;;;;1.90;94.90;;;;;;5003162;28;20363;-78
2021/04/13 06:46:36;;;;;;;25.27;13.50;;;2.00;94.40;;;;;;4996690;28;19909;-78
2021/04/13 06:49:19;;;;;;;23.67;13.57;;;2.00;94.40;;;;;;4993648;28;20481;-79
2021/04/13 06:52:06;;;;;;;23.10;13.25;;;2.10;94.60;;;;;;5010872;28;20035;-78
2021/04/13 06:54:40;;;;;;;23.65;14.38;;;2.20;94.40;;;;;;5010590;28;20037;-78
2021/04/13 06:57:05;;;;;;;25.20;15.25;;;2.40;95.30;;;;;;4995498;28;20036;-78
2021/04/13 06:59:39;;;;;;;25.08;13.05;;;2.60;95.60;;;;;;4997547;28;20033;-78
2021/04/13 07:02:17;;;;;;;30.92;15.85;;;2.70;95.20;;;;;;4993047;28;20111;-78
2021/04/13 07:05:01;;;;;;;24.13;12.90;;;2.90;95.20;;;;;;4978373;28;20030;-78
2021/04/13 07:07:41;;;;;;;21.55;12.77;;;3.10;95.60;;;;;;4993105;28;20029;-78
2021/04/13 07:10:20;;;;;;;23.45;14.27;;;3.20;95.30;;;;;;4969710;28;20077;-77
2021/04/13 07:12:48;;;;;;;17.50;10.40;;;3.50;95.20;;;;;;5007849;28;20034;-78
2021/04/13 07:15:33;;;;;;;18.95;11.80;;;3.50;94.60;;;;;;4966302;28;20045;-77
2021/04/13 07:18:20;;;;;;;23.70;11.27;;;3.70;94.80;;;;;;5009065;28;20038;-78
2021/04/13 07:20:55;;;;;;;30.33;12.20;;;3.60;96.30;;;;;;5000852;28;20031;-78
2021/04/13 07:23:54;;;;;;;15.80;10.33;;;3.70;96.20;;;;;;4998345;28;20117;-78
2021/04/13 07:26:37;;;;;;;17.90;8.55;;;3.80;96.60;;;;;;4964051;28;20038;-78
2021/04/13 07:29:13;;;;;;;19.08;6.95;;;4.00;96.70;;;;;;4982991;28;20413;-78
2021/04/13 07:32:16;;;;;;;24.60;7.85;;;4.30;97.40;;;;;;5004949;28;20116;-78
2021/04/13 07:34:42;;;;;;;22.90;8.35;;;4.60;96.60;;;;;;4986425;28;20042;-77
2021/04/13 07:37:11;;;;;;;15.43;8.02;;;5.00;96.70;;;;;;4993920;28;20117;-77
2021/04/13 07:39:36;;;;;;;24.38;7.22;;;5.00;97.20;;;;;;4993657;28;20045;-77
2021/04/13 07:42:08;;;;;;;14.57;6.32;;;5.20;96.70;;;;;;4983482;28;20058;-77
2021/04/13 07:44:42;;;;;;;12.57;6.47;;;5.20;96.50;;;;;;4995574;28;20044;-77
2021/04/13 07:47:18;;;;;;;19.95;7.45;;;5.40;96.60;;;;;;4996473;28;20061;-77
2021/04/13 07:49:51;;;;;;;21.38;7.68;;;5.50;96.90;;;;;;4995751;28;20030;-77
2021/04/13 07:52:23;;;;;;;11.45;7.05;;;5.90;96.40;;;;;;4995992;28;20042;-77
2021/04/13 07:55:17;;;;;;;17.48;6.78;;;6.10;97.30;;;;;;5009869;28;20593;-77
2021/04/13 07:57:55;;;;;;;14.48;6.85;;;6.40;97.60;;;;;;4999810;28;20137;-77
2021/04/13 08:00:25;;;;;;;21.13;7.40;;;6.60;98.70;;;;;;4999451;28;20045;-77
2021/04/13 08:02:56;;;;;;;13.95;6.72;;;6.70;97.60;;;;;;4977239;28;20521;-76
2021/04/13 08:05:41;;;;;;;15.07;6.85;;;7.00;98.30;;;;;;5010882;28;20049;-76
2021/04/13 08:08:20;;;;;;;9.90;5.32;;;7.20;98.00;;;;;;4984867;28;20034;-76
2021/04/13 08:10:46;;;;;;;13.05;5.78;;;7.30;97.40;;;;;;4983057;28;20050;-77
2021/04/13 08:13:13;;;;;;;14.00;4.93;;;7.40;96.90;;;;;;4981820;28;20037;-77
2021/04/13 08:15:41;;;;;;;14.43;4.18;;;7.60;97.90;;;;;;4982575;28;20046;-77
2021/04/13 08:18:11;;;;;;;13.05;5.32;;;7.70;97.80;;;;;;5000363;28;20417;-77
2021/04/13 08:20:39;;;;;;;16.23;5.43;;;7.70;96.30;;;;;;4994401;28;20030;-76
2021/04/13 08:23:11;;;;;;;12.30;3.55;;;7.80;98.60;;;;;;5003383;28;20057;-76
2021/04/13 08:25:48;;;;;;;15.90;3.25;;;8.00;98.40;;;;;;4982412;28;20038;-77
2021/04/13 08:28:35;;;;;;;12.95;2.97;;;8.00;98.60;;;;;;4981723;28;20038;-77
2021/04/13 08:34:23;;;;;;;16.13;4.13;;;8.00;98.10;;;;;;5010242;28;20108;-77
2021/04/13 08:37:24;;;;;;;12.63;3.15;;;8.00;97.80;;;;;;5003460;28;20030;-77
2021/04/13 08:40:10;;;;;;;10.20;2.95;;;8.00;98.00;;;;;;4982960;28;20034;-77
2021/04/13 08:43:13;;;;;;;7.35;2.17;;;8.00;97.80;;;;;;4994532;28;20445;-77
2021/04/13 08:46:02;;;;;;;9.73;2.38;;;8.00;97.60;;;;;;5010226;28;20026;-78
2021/04/13 08:48:39;;;;;;;13.40;2.75;;;8.00;96.90;;;;;;4994729;28;20040;-77
2021/04/13 08:51:10;;;;;;;8.50;2.03;;;8.20;97.80;;;;;;4995566;28;20038;-77
2021/04/13 08:53:42;;;;;;;12.63;2.47;;;8.50;97.80;;;;;;4990848;28;20701;-77
2021/04/13 08:56:11;;;;;;;13.98;2.65;;;8.70;96.60;;;;;;4967821;28;20077;-77
2021/04/13 08:58:39;;;;;;;9.10;1.90;;;8.70;96.50;;;;;;5003816;28;20435;-77
2021/04/13 09:01:34;;;;;;;12.43;2.35;;;8.50;95.20;;;;;;5003784;28;20041;-77
2021/04/13 09:03:59;;;;;;;8.95;1.85;;;8.30;94.80;;;;;;4983738;28;20547;-77
2021/04/13 09:06:45;;;;;;;8.43;1.80;;;8.00;92.20;;;;;;4995262;28;20026;-77
2021/04/13 09:09:18;;;;;;;11.97;1.60;;;7.90;94.60;;;;;;4985318;28;20041;-78
2021/04/13 09:11:52;;;;;;;5.78;1.52;;;8.00;95.40;;;;;;4986407;28;20257;-78
2021/04/13 09:14:25;;;;;;;8.50;1.23;;;8.20;95.20;;;;;;5004108;28;20057;-77
2021/04/13 09:16:57;;;;;;;6.82;1.15;;;8.40;94.30;;;;;;4992287;28;20030;-78
2021/04/13 09:19:29;;;;;;;9.02;0.88;;;8.60;95.20;;;;;;5000229;28;20041;-78
2021/04/13 09:21:54;;;;;;;9.52;1.52;;;8.90;95.90;;;;;;4989545;28;20573;-78
2021/04/13 09:24:27;;;;;;;4.05;1.13;;;9.30;95.50;;;;;;4992498;28;20132;-78
2021/04/13 09:27:03;;;;;;;9.98;1.23;;;9.50;92.50;;;;;;4976676;28;20042;-78
2021/04/13 09:29:47;;;;;;;7.80;1.52;;;9.50;92.10;;;;;;5009437;28;20044;-78
2021/04/13 09:32:25;;;;;;;10.05;1.63;;;9.40;94.00;;;;;;5001563;28;20091;-78
2021/04/13 09:35:04;;;;;;;7.60;2.33;;;9.40;92.70;;;;;;4994353;28;20038;-78
2021/04/13 09:38:09;;;;;;;10.43;1.75;;;9.30;93.50;;;;;;4983470;28;20120;-78
2021/04/13 09:41:01;;;;;;;5.35;1.80;;;9.30;93.30;;;;;;5008212;28;20034;-78
2021/04/13 09:43:34;;;;;;;7.70;1.48;;;9.30;94.70;;;;;;4977705;28;20095;-78
2021/04/13 09:46:06;;;;;;;10.20;1.48;;;9.40;94.80;;;;;;4995590;28;20436;-78
2021/04/13 09:48:56;;;;;;;9.10;1.67;;;9.40;93.70;;;;;;4993532;28;20040;-78
2021/04/13 09:51:56;;;;;;;10.57;1.55;;;9.30;94.40;;;;;;5005605;28;20026;-77
2021/04/13 09:54:42;;;;;;;10.43;1.77;;;9.40;94.20;;;;;;4991317;28;20034;-77
2021/04/13 09:57:18;;;;;;;12.32;1.55;;;9.60;94.00;;;;;;4974509;28;20084;-77
2021/04/13 10:00:02;;;;;;;4.22;1.30;;;9.90;94.40;;;;;;4997159;28;20038;-78
2021/04/13 10:02:57;;;;;;;4.88;1.27;;;10.20;94.20;;;;;;5004219;28;20033;-77
2021/04/13 10:05:27;;;;;;;8.02;1.33;;;10.50;93.30;;;;;;4986846;28;20061;-77
2021/04/13 10:07:55;;;;;;;5.55;1.55;;;11.10;93.40;;;;;;5007301;28;20045;-78
2021/04/13 10:10:22;;;;;;;6.88;1.30;;;11.10;91.80;;;;;;4983865;28;20488;-77
2021/04/13 10:12:56;;;;;;;10.10;1.40;;;11.30;93.50;;;;;;4975886;28;20053;-77
2021/04/13 10:15:39;;;;;;;8.05;1.48;;;11.50;94.10;;;;;;5006187;28;20489;-78
2021/04/13 10:18:21;;;;;;;8.45;1.95;;;12.00;94.30;;;;;;4996595;28;20062;-78
2021/04/13 10:21:05;;;;;;;7.07;1.63;;;12.20;93.70;;;;;;4986094;28;20056;-78
2021/04/13 10:23:31;;;;;;;7.97;1.05;;;12.30;93.10;;;;;;4987386;28;20034;-78
2021/04/13 10:26:28;;;;;;;11.13;1.42;;;12.50;92.30;;;;;;4994975;28;20168;-78
2021/04/13 10:29:12;;;;;;;7.13;1.20;;;12.60;92.80;;;;;;4997207;28;20034;-78
2021/04/13 10:31:49;;;;;;;8.48;1.50;;;12.80;91.20;;;;;;5000542;28;20045;-78
2021/04/13 10:34:39;;;;;;;5.43;0.93;;;12.70;91.40;;;;;;5005057;28;20069;-78
2021/04/13 10:37:18;;;;;;;5.13;1.25;;;12.80;91.20;;;;;;5005246;28;20038;-77
2021/04/13 10:40:03;;;;;;;7.85;1.00;;;12.70;91.60;;;;;;4986405;28;20461;-78
2021/04/13 10:43:08;;;;;;;8.15;1.00;;;12.40;87.70;;;;;;5009778;28;20034;-78
2021/04/13 10:46:10;;;;;;;8.25;1.05;;;12.20;87.60;;;;;;5007003;28;20559;-78
2021/04/13 10:48:48;;;;;;;6.28;1.25;;;12.10;90.70;;;;;;4994219;28;20604;-78
2021/04/13 10:51:19;;;;;;;6.68;1.08;;;11.90;90.80;;;;;;4993498;28;20033;-77
2021/04/13 10:54:01;;;;;;;7.28;1.23;;;11.80;91.50;;;;;;4999133;28;20044;-78
2021/04/13 10:57:03;;;;;;;4.93;0.98;;;11.60;91.30;;;;;;5000666;28;20129;-78
2021/04/13 10:59:43;;;;;;;6.00;0.98;;;11.80;90.30;;;;;;4998140;28;20100;-78
2021/04/13 11:02:46;;;;;;;6.03;1.10;;;11.90;90.90;;;;;;4996120;28;20425;-78
2021/04/13 11:05:38;;;;;;;7.45;1.40;;;12.00;88.00;;;;;;5009379;28;20104;-78
2021/04/13 11:08:18;;;;;;;8.23;0.95;;;12.40;86.50;;;;;;4985479;28;20402;-78
2021/04/13 11:11:17;;;;;;;6.57;1.38;;;13.00;86.90;;;;;;5008499;28;20378;-78
2021/04/13 11:14:15;;;;;;;10.18;1.42;;;12.80;83.30;;;;;;4996057;28;20175;-78
2021/04/13 11:17:19;;;;;;;3.50;1.20;;;12.60;78.30;;;;;;5000636;28;20127;-78
2021/04/13 11:20:09;;;;;;;6.03;0.98;;;12.60;78.80;;;;;;4996978;28;20030;-78
2021/04/13 11:22:43;;;;;;;2.05;0.88;;;12.80;79.50;;;;;;4990034;28;20484;-78
2021/04/13 11:25:15;;;;;;;4.82;0.88;;;13.20;81.30;;;;;;5007062;28;20570;-77
2021/04/13 11:27:58;;;;;;;2.33;0.60;;;13.30;82.50;;;;;;4987327;28;20061;-78
2021/04/13 11:31:01;;;;;;;4.28;1.00;;;13.20;82.80;;;;;;5014669;28;20034;-78
2021/04/13 11:33:47;;;;;;;8.30;1.33;;;13.50;81.80;;;;;;5009367;28;20038;-77
2021/04/13 11:36:20;;;;;;;4.90;0.82;;;13.60;82.00;;;;;;5002868;28;20030;-77
2021/04/13 11:39:01;;;;;;;6.30;1.00;;;13.80;81.10;;;;;;4997865;28;20063;-77
2021/04/13 11:42:02;;;;;;;3.63;0.98;;;14.10;81.60;;;;;;5000851;28;20049;-78
2021/04/13 11:44:30;;;;;;;2.38;0.60;;;14.50;82.70;;;;;;5003515;28;20041;-77
2021/04/13 11:46:58;;;;;;;4.35;0.73;;;14.60;82.00;;;;;;4984909;28;20070;-78
2021/04/13 11:49:51;;;;;;;4.88;1.02;;;14.90;79.70;;;;;;4985195;28;20030;-77
2021/04/13 11:52:26;;;;;;;3.88;0.80;;;14.90;74.60;;;;;;4999317;28;20030;-78
2021/04/13 11:54:53;;;;;;;2.78;0.80;;;15.20;76.90;;;;;;5007440;28;20053;-77
2021/04/13 11:57:21;;;;;;;1.50;0.70;;;15.80;75.70;;;;;;4997347;28;20084;-77
2021/04/13 12:00:18;;;;;;;4.38;1.17;;;15.90;75.80;;;;;;5006272;28;20133;-78
2021/04/13 12:02:44;;;;;;;6.65;1.00;;;15.50;74.80;;;;;;5005920;28;20103;-77
2021/04/13 12:05:24;;;;;;;3.83;0.70;;;15.20;67.20;;;;;;4968569;28;20105;-77
2021/04/13 12:07:50;;;;;;;3.88;0.70;;;15.00;69.20;;;;;;5007400;28;20042;-78
2021/04/13 12:10:30;;;;;;;3.28;1.15;;;14.90;68.00;;;;;;4968213;28;20041;-77
2021/04/13 12:12:57;;;;;;;7.00;1.83;;;14.60;63.60;;;;;;5004651;28;20304;-78
2021/04/13 12:15:23;;;;;;;7.22;1.42;;;14.40;66.90;;;;;;4981506;28;20041;-77
2021/04/13 12:17:50;;;;;;;4.30;1.52;;;14.20;64.50;;;;;;5007697;28;20532;-77
2021/04/13 12:20:39;;;;;;;7.82;1.25;;;14.00;62.00;;;;;;4998986;28;20041;-77
2021/04/13 12:23:04;;;;;;;3.35;0.90;;;13.70;59.50;;;;;;5002044;28;20125;-77
2021/04/13 12:25:56;;;;;;;7.15;1.17;;;13.50;63.70;;;;;;4998336;28;20129;-77
2021/04/13 12:28:33;;;;;;;7.88;1.75;;;13.30;61.10;;;;;;5008928;28;20394;-77
2021/04/13 12:31:05;;;;;;;6.35;1.20;;;13.00;58.80;;;;;;4996119;28;20565;-77
2021/04/13 12:33:30;;;;;;;5.60;1.17;;;12.90;60.70;;;;;;5005520;28;20119;-77
2021/04/13 12:35:57;;;;;;;2.78;1.08;;;12.70;62.80;;;;;;5004329;28;20070;-78
2021/04/13 12:38:46;;;;;;;5.63;1.40;;;12.50;62.60;;;;;;4982950;28;20574;-76
2021/04/13 12:41:28;;;;;;;3.25;0.88;;;12.30;58.40;;;;;;4988866;28;20037;-76
2021/04/13 12:43:55;;;;;;;2.47;0.50;;;12.40;61.40;;;;;;5007327;28;20045;-76
2021/04/13 12:46:45;;;;;;;4.63;0.93;;;12.40;62.90;;;;;;4995460;28;20052;-75
2021/04/13 12:49:11;;;;;;;5.85;0.77;;;12.80;61.80;;;;;;4981629;28;20038;-75
2021/04/13 12:52:12;;;;;;;3.85;0.80;;;12.80;65.80;;;;;;5008056;28;20111;-78
2021/04/13 12:54:42;;;;;;;4.55;1.25;;;12.90;61.70;;;;;;4982783;28;20033;-78
2021/04/13 12:57:20;;;;;;;6.70;1.13;;;12.80;55.30;;;;;;4996918;28;20038;-78
2021/04/13 12:59:45;;;;;;;3.67;0.63;;;12.60;55.80;;;;;;4975507;28;20445;-78
2021/04/13 13:02:30;;;;;;;1.83;0.65;;;12.60;56.50;;;;;;4965964;28;20042;-78
2021/04/13 13:04:56;;;;;;;4.80;0.90;;;12.50;55.60;;;;;;4994029;28;20037;-78
2021/04/13 13:07:24;;;;;;;2.63;1.33;;;12.40;54.60;;;;;;4986841;28;20023;-78
2021/04/13 13:09:49;;;;;;;1.75;0.70;;;12.30;55.30;;;;;;4977571;28;20462;-78
2021/04/13 13:12:18;;;;;;;2.97;0.80;;;12.30;53.30;;;;;;4984674;28;20054;-78
2021/04/13 13:14:44;;;;;;;3.85;0.70;;;12.30;55.20;;;;;;5004399;28;20446;-78
2021/04/13 13:17:17;;;;;;;3.25;0.80;;;12.20;52.30;;;;;;4998484;28;20129;-78
2021/04/13 13:19:50;;;;;;;2.22;0.50;;;12.20;58.20;;;;;;4983232;28;20030;-77
2021/04/13 13:22:23;;;;;;;2.10;0.57;;;12.20;57.20;;;;;;4986276;28;20044;-77
2021/04/13 13:24:51;;;;;;;1.45;0.52;;;12.10;55.90;;;;;;4997547;28;20521;-77